sensor_id;sensor_type;location;lat;lon;timestamp;temperature;humidity
37412;DHT22;23278;52.110;6.050;2022-08-04T00:01:45;21.60;90.00
37412;DHT22;23278;52.110;6.050;2022-08-04T00:04:48;21.60;90.20
37412;DHT22;23278;52.110;6.050;2022-08-04T00:10:00;21.50;90.40
37412;DHT22;23278;52.110;6.050;2022-08-04T00:12:31;21.50;90.60
37412;DHT22;23278;52.110;6.050;2022-08-04T00:15:03;21.50;90.90
37412;DHT22;23278;52.110;6.050;2022-08-04T00:17:33;21.40;90.90
37412;DHT22;23278;52.110;6.050;2022-08-04T00:20:03;21.40;91.10
37412;DHT22;23278;52.110;6.050;2022-08-04T00:22:33;21.30;91.30
37412;DHT22;23278;52.110;6.050;2022-08-04T00:25:03;21.30;91.40
37412;DHT22;23278;52.110;6.050;2022-08-04T00:27:30;21.30;91.50
37412;DHT22;23278;52.110;6.050;2022-08-04T00:29:57;21.20;91.60
37412;DHT22;23278;52.110;6.050;2022-08-04T00:32:25;21.20;91.70
37412;DHT22;23278;52.110;6.050;2022-08-04T00:34:53;21.10;91.80
37412;DHT22;23278;52.110;6.050;2022-08-04T00:37:23;21.10;92.00
37412;DHT22;23278;52.110;6.050;2022-08-04T00:39:49;21.00;92.10
37412;DHT22;23278;52.110;6.050;2022-08-04T00:52:55;20.80;92.80
37412;DHT22;23278;52.110;6.050;2022-08-04T00:55:55;20.80;92.90
37412;DHT22;23278;52.110;6.050;2022-08-04T01:01:41;20.60;93.30
37412;DHT22;23278;52.110;6.050;2022-08-04T01:04:19;20.50;93.30
37412;DHT22;23278;52.110;6.050;2022-08-04T01:10:07;20.40;93.60
37412;DHT22;23278;52.110;6.050;2022-08-04T01:15:44;20.30;93.70
37412;DHT22;23278;52.110;6.050;2022-08-04T01:18:25;20.30;93.70
37412;DHT22;23278;52.110;6.050;2022-08-04T01:29:46;20.30;94.10
37412;DHT22;23278;52.110;6.050;2022-08-04T01:32:18;20.20;94.10
37412;DHT22;23278;52.110;6.050;2022-08-04T01:34:55;20.20;94.30
37412;DHT22;23278;52.110;6.050;2022-08-04T01:40:05;20.00;94.40
37412;DHT22;23278;52.110;6.050;2022-08-04T01:42:32;20.00;94.50
37412;DHT22;23278;52.110;6.050;2022-08-04T01:45:10;20.00;94.50
37412;DHT22;23278;52.110;6.050;2022-08-04T01:47:39;19.90;94.60
37412;DHT22;23278;52.110;6.050;2022-08-04T01:50:11;19.90;94.70
37412;DHT22;23278;52.110;6.050;2022-08-04T01:52:41;19.90;94.70
37412;DHT22;23278;52.110;6.050;2022-08-04T01:55:09;19.90;94.80
37412;DHT22;23278;52.110;6.050;2022-08-04T01:57:51;19.90;94.80
37412;DHT22;23278;52.110;6.050;2022-08-04T02:00:23;19.90;94.90
37412;DHT22;23278;52.110;6.050;2022-08-04T02:02:52;19.90;94.90
37412;DHT22;23278;52.110;6.050;2022-08-04T02:05:21;19.90;94.90
37412;DHT22;23278;52.110;6.050;2022-08-04T02:07:57;19.90;94.90
37412;DHT22;23278;52.110;6.050;2022-08-04T02:10:34;19.80;94.90
37412;DHT22;23278;52.110;6.050;2022-08-04T02:13:22;19.80;95.20
37412;DHT22;23278;52.110;6.050;2022-08-04T02:16:05;19.80;95.10
37412;DHT22;23278;52.110;6.050;2022-08-04T02:18:57;19.70;95.20
37412;DHT22;23278;52.110;6.050;2022-08-04T02:21:25;19.60;95.30
37412;DHT22;23278;52.110;6.050;2022-08-04T02:23:59;19.60;95.30
37412;DHT22;23278;52.110;6.050;2022-08-04T02:26:28;19.60;95.40
37412;DHT22;23278;52.110;6.050;2022-08-04T02:29:03;19.60;95.40
37412;DHT22;23278;52.110;6.050;2022-08-04T02:31:42;19.60;95.50
37412;DHT22;23278;52.110;6.050;2022-08-04T02:36:40;19.60;95.50
37412;DHT22;23278;52.110;6.050;2022-08-04T02:39:10;19.60;95.60
37412;DHT22;23278;52.110;6.050;2022-08-04T02:41:38;19.60;95.60
37412;DHT22;23278;52.110;6.050;2022-08-04T02:44:07;19.60;95.60
37412;DHT22;23278;52.110;6.050;2022-08-04T02:46:35;19.60;95.60
37412;DHT22;23278;52.110;6.050;2022-08-04T02:49:04;19.60;95.70
37412;DHT22;23278;52.110;6.050;2022-08-04T02:51:36;19.60;95.80
37412;DHT22;23278;52.110;6.050;2022-08-04T02:54:05;19.50;95.90
37412;DHT22;23278;52.110;6.050;2022-08-04T02:56:32;19.50;96.00
37412;DHT22;23278;52.110;6.050;2022-08-04T02:59:05;19.50;96.10
37412;DHT22;23278;52.110;6.050;2022-08-04T03:01:32;19.40;96.20
37412;DHT22;23278;52.110;6.050;2022-08-04T03:13:13;19.20;96.40
37412;DHT22;23278;52.110;6.050;2022-08-04T03:21:13;19.00;96.40
37412;DHT22;23278;52.110;6.050;2022-08-04T03:44:08;19.20;96.40
37412;DHT22;23278;52.110;6.050;2022-08-04T04:06:35;19.80;96.20
37412;DHT22;23278;52.110;6.050;2022-08-04T04:12:38;19.90;96.00
37412;DHT22;23278;52.110;6.050;2022-08-04T04:15:35;19.90;96.00
37412;DHT22;23278;52.110;6.050;2022-08-04T04:24:03;20.10;95.90
37412;DHT22;23278;52.110;6.050;2022-08-04T04:29:28;20.10;95.80
37412;DHT22;23278;52.110;6.050;2022-08-04T04:32:23;20.10;95.80
37412;DHT22;23278;52.110;6.050;2022-08-04T04:51:50;19.90;96.20
37412;DHT22;23278;52.110;6.050;2022-08-04T04:57:21;19.80;96.40
37412;DHT22;23278;52.110;6.050;2022-08-04T05:00:07;19.70;96.50
37412;DHT22;23278;52.110;6.050;2022-08-04T05:11:10;20.00;96.30
37412;DHT22;23278;52.110;6.050;2022-08-04T05:13:45;20.00;96.20
37412;DHT22;23278;52.110;6.050;2022-08-04T05:18:53;20.20;96.20
37412;DHT22;23278;52.110;6.050;2022-08-04T05:21:44;20.30;96.10
37412;DHT22;23278;52.110;6.050;2022-08-04T05:24:14;20.40;96.00
37412;DHT22;23278;52.110;6.050;2022-08-04T05:26:51;20.60;96.00
37412;DHT22;23278;52.110;6.050;2022-08-04T05:29:28;20.70;95.90
37412;DHT22;23278;52.110;6.050;2022-08-04T05:31:56;20.80;95.80
37412;DHT22;23278;52.110;6.050;2022-08-04T05:34:30;20.90;95.80
37412;DHT22;23278;52.110;6.050;2022-08-04T05:37:02;21.10;95.70
37412;DHT22;23278;52.110;6.050;2022-08-04T05:39:38;21.20;95.60
37412;DHT22;23278;52.110;6.050;2022-08-04T05:42:08;21.30;95.50
37412;DHT22;23278;52.110;6.050;2022-08-04T05:44:37;21.50;95.40
37412;DHT22;23278;52.110;6.050;2022-08-04T05:47:03;21.60;95.20
37412;DHT22;23278;52.110;6.050;2022-08-04T05:49:30;21.70;95.10
37412;DHT22;23278;52.110;6.050;2022-08-04T05:52:00;21.90;95.00
37412;DHT22;23278;52.110;6.050;2022-08-04T05:54:27;22.00;94.90
37412;DHT22;23278;52.110;6.050;2022-08-04T05:56:56;22.10;94.70
37412;DHT22;23278;52.110;6.050;2022-08-04T05:59:24;22.30;94.60
37412;DHT22;23278;52.110;6.050;2022-08-04T06:01:52;22.40;94.40
37412;DHT22;23278;52.110;6.050;2022-08-04T06:04:20;22.50;94.30
37412;DHT22;23278;52.110;6.050;2022-08-04T06:06:48;22.60;94.20
37412;DHT22;23278;52.110;6.050;2022-08-04T06:09:14;22.70;94.10
37412;DHT22;23278;52.110;6.050;2022-08-04T06:11:42;22.80;93.90
37412;DHT22;23278;52.110;6.050;2022-08-04T06:14:12;22.90;93.80
37412;DHT22;23278;52.110;6.050;2022-08-04T06:16:40;23.00;93.70
37412;DHT22;23278;52.110;6.050;2022-08-04T06:19:11;23.10;93.50
37412;DHT22;23278;52.110;6.050;2022-08-04T06:21:42;23.30;93.40
37412;DHT22;23278;52.110;6.050;2022-08-04T06:24:13;23.40;93.10
37412;DHT22;23278;52.110;6.050;2022-08-04T06:26:40;23.60;92.90
37412;DHT22;23278;52.110;6.050;2022-08-04T06:29:08;23.70;92.70
37412;DHT22;23278;52.110;6.050;2022-08-04T06:31:42;23.80;92.50
37412;DHT22;23278;52.110;6.050;2022-08-04T06:34:13;24.00;92.40
37412;DHT22;23278;52.110;6.050;2022-08-04T06:36:41;24.00;92.20
37412;DHT22;23278;52.110;6.050;2022-08-04T06:39:09;24.20;92.00
37412;DHT22;23278;52.110;6.050;2022-08-04T06:41:36;24.30;91.80
37412;DHT22;23278;52.110;6.050;2022-08-04T06:44:06;24.40;91.60
37412;DHT22;23278;52.110;6.050;2022-08-04T06:46:37;24.60;91.30
37412;DHT22;23278;52.110;6.050;2022-08-04T06:49:04;24.70;91.00
37412;DHT22;23278;52.110;6.050;2022-08-04T06:51:36;24.90;90.70
37412;DHT22;23278;52.110;6.050;2022-08-04T06:54:04;25.10;90.50
37412;DHT22;23278;52.110;6.050;2022-08-04T06:56:32;25.20;90.20
37412;DHT22;23278;52.110;6.050;2022-08-04T06:59:00;25.40;90.00
37412;DHT22;23278;52.110;6.050;2022-08-04T07:01:26;25.60;90.00
37412;DHT22;23278;52.110;6.050;2022-08-04T07:03:54;25.70;89.30
37412;DHT22;23278;52.110;6.050;2022-08-04T07:06:23;25.80;88.80
37412;DHT22;23278;52.110;6.050;2022-08-04T07:08:50;26.00;88.40
37412;DHT22;23278;52.110;6.050;2022-08-04T07:11:19;26.10;87.70
37412;DHT22;23278;52.110;6.050;2022-08-04T07:13:46;26.20;86.60
37412;DHT22;23278;52.110;6.050;2022-08-04T07:16:16;26.40;85.90
37412;DHT22;23278;52.110;6.050;2022-08-04T07:18:43;26.50;85.00
37412;DHT22;23278;52.110;6.050;2022-08-04T07:21:10;26.50;84.40
37412;DHT22;23278;52.110;6.050;2022-08-04T07:23:44;26.60;83.70
37412;DHT22;23278;52.110;6.050;2022-08-04T07:26:10;26.70;83.30
37412;DHT22;23278;52.110;6.050;2022-08-04T07:28:36;26.80;82.80
37412;DHT22;23278;52.110;6.050;2022-08-04T07:31:04;26.90;82.10
37412;DHT22;23278;52.110;6.050;2022-08-04T07:33:31;27.00;81.40
37412;DHT22;23278;52.110;6.050;2022-08-04T07:35:57;27.10;81.10
37412;DHT22;23278;52.110;6.050;2022-08-04T07:38:23;27.20;80.40
37412;DHT22;23278;52.110;6.050;2022-08-04T07:40:49;27.20;79.60
37412;DHT22;23278;52.110;6.050;2022-08-04T07:43:16;27.20;78.00
37412;DHT22;23278;52.110;6.050;2022-08-04T07:45:42;27.20;77.70
37412;DHT22;23278;52.110;6.050;2022-08-04T07:48:11;27.20;77.20
37412;DHT22;23278;52.110;6.050;2022-08-04T07:50:37;27.20;76.60
37412;DHT22;23278;52.110;6.050;2022-08-04T07:53:05;27.30;76.10
37412;DHT22;23278;52.110;6.050;2022-08-04T07:55:31;27.40;75.20
37412;DHT22;23278;52.110;6.050;2022-08-04T07:57:57;27.50;74.80
37412;DHT22;23278;52.110;6.050;2022-08-04T08:00:23;27.70;73.80
37412;DHT22;23278;52.110;6.050;2022-08-04T08:02:49;27.90;73.20
37412;DHT22;23278;52.110;6.050;2022-08-04T08:05:17;28.00;71.20
37412;DHT22;23278;52.110;6.050;2022-08-04T08:07:45;28.10;71.10
37412;DHT22;23278;52.110;6.050;2022-08-04T08:10:12;28.20;70.40
37412;DHT22;23278;52.110;6.050;2022-08-04T08:12:40;28.40;69.90
37412;DHT22;23278;52.110;6.050;2022-08-04T08:15:07;28.50;69.50
37412;DHT22;23278;52.110;6.050;2022-08-04T08:17:34;28.60;69.40
37412;DHT22;23278;52.110;6.050;2022-08-04T08:20:01;28.70;68.50
37412;DHT22;23278;52.110;6.050;2022-08-04T08:22:28;28.90;68.00
37412;DHT22;23278;52.110;6.050;2022-08-04T08:24:55;29.00;67.40
37412;DHT22;23278;52.110;6.050;2022-08-04T08:27:22;29.10;66.80
37412;DHT22;23278;52.110;6.050;2022-08-04T08:29:49;29.30;66.10
37412;DHT22;23278;52.110;6.050;2022-08-04T08:32:15;29.50;64.50
37412;DHT22;23278;52.110;6.050;2022-08-04T08:34:42;29.50;63.90
37412;DHT22;23278;52.110;6.050;2022-08-04T08:37:30;29.60;63.60
37412;DHT22;23278;52.110;6.050;2022-08-04T09:00:47;31.50;57.10
37412;DHT22;23278;52.110;6.050;2022-08-04T09:12:12;31.40;56.10
37412;DHT22;23278;52.110;6.050;2022-08-04T09:15:11;31.20;56.30
37412;DHT22;23278;52.110;6.050;2022-08-04T09:20:24;31.20;56.90
37412;DHT22;23278;52.110;6.050;2022-08-04T09:23:03;31.40;56.40
37412;DHT22;23278;52.110;6.050;2022-08-04T09:25:39;31.70;56.10
37412;DHT22;23278;52.110;6.050;2022-08-04T09:28:26;32.20;55.40
37412;DHT22;23278;52.110;6.050;2022-08-04T09:30:59;32.80;54.20
37412;DHT22;23278;52.110;6.050;2022-08-04T09:36:14;33.60;52.10
37412;DHT22;23278;52.110;6.050;2022-08-04T09:47:45;33.20;52.50
37412;DHT22;23278;52.110;6.050;2022-08-04T09:50:18;33.30;51.70
37412;DHT22;23278;52.110;6.050;2022-08-04T09:53:09;33.40;51.60
37412;DHT22;23278;52.110;6.050;2022-08-04T10:01:07;34.00;50.50
37412;DHT22;23278;52.110;6.050;2022-08-04T10:03:44;34.50;49.40
37412;DHT22;23278;52.110;6.050;2022-08-04T10:06:38;35.20;48.20
37412;DHT22;23278;52.110;6.050;2022-08-04T10:15:13;35.60;46.80
37412;DHT22;23278;52.110;6.050;2022-08-04T10:23:34;35.30;48.30
37412;DHT22;23278;52.110;6.050;2022-08-04T10:26:14;35.00;48.40
37412;DHT22;23278;52.110;6.050;2022-08-04T10:29:12;34.70;49.00
37412;DHT22;23278;52.110;6.050;2022-08-04T10:34:31;34.00;50.50
37412;DHT22;23278;52.110;6.050;2022-08-04T10:40:03;34.10;50.70
37412;DHT22;23278;52.110;6.050;2022-08-04T10:43:01;34.10;50.50
37412;DHT22;23278;52.110;6.050;2022-08-04T10:45:35;33.80;50.80
37412;DHT22;23278;52.110;6.050;2022-08-04T10:48:22;33.50;51.10
37412;DHT22;23278;52.110;6.050;2022-08-04T10:51:24;33.20;51.40
37412;DHT22;23278;52.110;6.050;2022-08-04T10:53:56;32.80;51.80
37412;DHT22;23278;52.110;6.050;2022-08-04T10:56:26;32.50;52.20
37412;DHT22;23278;52.110;6.050;2022-08-04T10:58:59;32.20;52.80
37412;DHT22;23278;52.110;6.050;2022-08-04T11:01:32;31.80;53.30
37412;DHT22;23278;52.110;6.050;2022-08-04T11:04:04;31.40;54.00
37412;DHT22;23278;52.110;6.050;2022-08-04T11:06:34;31.10;54.90
37412;DHT22;23278;52.110;6.050;2022-08-04T11:09:02;30.80;55.90
37412;DHT22;23278;52.110;6.050;2022-08-04T11:11:38;30.50;56.60
37412;DHT22;23278;52.110;6.050;2022-08-04T11:14:10;30.30;57.90
37412;DHT22;23278;52.110;6.050;2022-08-04T11:16:43;30.10;60.10
37412;DHT22;23278;52.110;6.050;2022-08-04T11:22:03;29.50;63.40
37412;DHT22;23278;52.110;6.050;2022-08-04T11:24:45;29.20;64.50
37412;DHT22;23278;52.110;6.050;2022-08-04T11:27:22;29.00;65.20
37412;DHT22;23278;52.110;6.050;2022-08-04T11:32:44;28.40;67.20
37412;DHT22;23278;52.110;6.050;2022-08-04T11:35:17;28.10;67.70
37412;DHT22;23278;52.110;6.050;2022-08-04T11:37:49;28.00;68.20
37412;DHT22;23278;52.110;6.050;2022-08-04T11:40:23;27.80;69.30
37412;DHT22;23278;52.110;6.050;2022-08-04T11:42:58;27.70;69.70
37412;DHT22;23278;52.110;6.050;2022-08-04T11:45:37;27.60;70.60
37412;DHT22;23278;52.110;6.050;2022-08-04T11:48:12;27.40;71.90
37412;DHT22;23278;52.110;6.050;2022-08-04T11:50:48;27.20;73.40
37412;DHT22;23278;52.110;6.050;2022-08-04T11:53:18;27.20;74.40
37412;DHT22;23278;52.110;6.050;2022-08-04T11:55:49;27.30;74.80
37412;DHT22;23278;52.110;6.050;2022-08-04T11:58:18;27.40;75.10
37412;DHT22;23278;52.110;6.050;2022-08-04T12:06:26;27.70;76.00
37412;DHT22;23278;52.110;6.050;2022-08-04T12:11:55;27.70;76.50
37412;DHT22;23278;52.110;6.050;2022-08-04T12:14:50;27.70;77.40
37412;DHT22;23278;52.110;6.050;2022-08-04T12:17:37;27.70;78.00
37412;DHT22;23278;52.110;6.050;2022-08-04T12:20:06;27.80;78.70
37412;DHT22;23278;52.110;6.050;2022-08-04T12:22:40;27.90;78.60
37412;DHT22;23278;52.110;6.050;2022-08-04T12:25:14;28.30;78.20
37412;DHT22;23278;52.110;6.050;2022-08-04T12:27:46;28.50;77.90
37412;DHT22;23278;52.110;6.050;2022-08-04T12:30:15;28.70;77.60
37412;DHT22;23278;52.110;6.050;2022-08-04T12:35:39;28.40;78.80
37412;DHT22;23278;52.110;6.050;2022-08-04T12:38:14;28.30;79.90
37412;DHT22;23278;52.110;6.050;2022-08-04T12:40:49;28.30;79.90
37412;DHT22;23278;52.110;6.050;2022-08-04T12:43:30;28.50;79.50
37412;DHT22;23278;52.110;6.050;2022-08-04T12:46:05;28.70;79.20
37412;DHT22;23278;52.110;6.050;2022-08-04T12:48:35;29.10;77.60
37412;DHT22;23278;52.110;6.050;2022-08-04T12:51:01;29.60;76.30
37412;DHT22;23278;52.110;6.050;2022-08-04T12:53:37;30.00;75.30
37412;DHT22;23278;52.110;6.050;2022-08-04T12:56:05;30.70;73.50
37412;DHT22;23278;52.110;6.050;2022-08-04T12:58:40;31.40;71.70
37412;DHT22;23278;52.110;6.050;2022-08-04T13:01:12;31.50;71.00
37412;DHT22;23278;52.110;6.050;2022-08-04T13:06:28;31.40;68.30
37412;DHT22;23278;52.110;6.050;2022-08-04T13:09:02;33.20;64.40
37412;DHT22;23278;52.110;6.050;2022-08-04T13:11:29;35.60;59.00
37412;DHT22;23278;52.110;6.050;2022-08-04T13:13:58;37.70;54.00
37412;DHT22;23278;52.110;6.050;2022-08-04T13:16:29;38.40;50.50
37412;DHT22;23278;52.110;6.050;2022-08-04T13:18:56;38.00;50.10
37412;DHT22;23278;52.110;6.050;2022-08-04T13:21:24;37.10;51.00
37412;DHT22;23278;52.110;6.050;2022-08-04T13:23:52;36.20;51.90
37412;DHT22;23278;52.110;6.050;2022-08-04T13:26:19;35.50;52.50
37412;DHT22;23278;52.110;6.050;2022-08-04T13:28:47;34.90;53.20
37412;DHT22;23278;52.110;6.050;2022-08-04T13:31:18;34.90;52.60
37412;DHT22;23278;52.110;6.050;2022-08-04T13:33:48;35.70;51.30
37412;DHT22;23278;52.110;6.050;2022-08-04T13:36:15;37.50;48.50
37412;DHT22;23278;52.110;6.050;2022-08-04T13:38:52;38.60;47.20
37412;DHT22;23278;52.110;6.050;2022-08-04T13:41:20;40.90;43.90
37412;DHT22;23278;52.110;6.050;2022-08-04T13:43:53;41.60;42.30
37412;DHT22;23278;52.110;6.050;2022-08-04T13:46:23;41.50;42.00
37412;DHT22;23278;52.110;6.050;2022-08-04T13:48:50;42.50;41.00
37412;DHT22;23278;52.110;6.050;2022-08-04T13:51:19;43.00;40.60
37412;DHT22;23278;52.110;6.050;2022-08-04T13:53:55;44.50;39.00
37412;DHT22;23278;52.110;6.050;2022-08-04T13:56:22;45.60;37.30
37412;DHT22;23278;52.110;6.050;2022-08-04T13:58:55;46.40;36.60
37412;DHT22;23278;52.110;6.050;2022-08-04T14:01:25;47.00;35.90
37412;DHT22;23278;52.110;6.050;2022-08-04T14:03:58;47.30;36.00
37412;DHT22;23278;52.110;6.050;2022-08-04T14:06:35;48.30;35.40
37412;DHT22;23278;52.110;6.050;2022-08-04T14:09:15;49.00;34.40
37412;DHT22;23278;52.110;6.050;2022-08-04T14:11:48;48.70;34.40
37412;DHT22;23278;52.110;6.050;2022-08-04T14:16:58;48.70;33.70
37412;DHT22;23278;52.110;6.050;2022-08-04T14:19:26;49.30;33.50
37412;DHT22;23278;52.110;6.050;2022-08-04T14:21:52;48.70;33.90
37412;DHT22;23278;52.110;6.050;2022-08-04T14:24:22;48.10;34.10
37412;DHT22;23278;52.110;6.050;2022-08-04T14:26:49;47.50;34.20
37412;DHT22;23278;52.110;6.050;2022-08-04T14:29:16;47.40;33.80
37412;DHT22;23278;52.110;6.050;2022-08-04T14:31:46;46.80;34.20
37412;DHT22;23278;52.110;6.050;2022-08-04T14:34:24;45.50;35.00
37412;DHT22;23278;52.110;6.050;2022-08-04T14:36:50;44.50;35.60
37412;DHT22;23278;52.110;6.050;2022-08-04T14:39:17;44.00;36.00
37412;DHT22;23278;52.110;6.050;2022-08-04T14:42:00;43.20;36.80
37412;DHT22;23278;52.110;6.050;2022-08-04T14:44:26;42.10;37.50
37412;DHT22;23278;52.110;6.050;2022-08-04T14:46:53;41.20;38.10
37412;DHT22;23278;52.110;6.050;2022-08-04T14:49:21;40.70;38.40
37412;DHT22;23278;52.110;6.050;2022-08-04T14:51:54;40.50;38.40
37412;DHT22;23278;52.110;6.050;2022-08-04T14:56:54;44.20;35.40
37412;DHT22;23278;52.110;6.050;2022-08-04T14:59:20;45.60;34.40
37412;DHT22;23278;52.110;6.050;2022-08-04T15:01:48;45.90;33.40
37412;DHT22;23278;52.110;6.050;2022-08-04T15:04:14;45.20;33.50
37412;DHT22;23278;52.110;6.050;2022-08-04T15:06:40;44.60;33.50
37412;DHT22;23278;52.110;6.050;2022-08-04T15:09:08;44.70;33.70
37412;DHT22;23278;52.110;6.050;2022-08-04T15:11:35;45.90;33.00
37412;DHT22;23278;52.110;6.050;2022-08-04T15:14:02;46.50;33.00
37412;DHT22;23278;52.110;6.050;2022-08-04T15:16:30;45.60;34.00
37412;DHT22;23278;52.110;6.050;2022-08-04T15:18:57;45.40;33.70
37412;DHT22;23278;52.110;6.050;2022-08-04T15:21:25;45.90;33.40
37412;DHT22;23278;52.110;6.050;2022-08-04T15:23:54;46.30;33.40
37412;DHT22;23278;52.110;6.050;2022-08-04T15:26:40;45.80;33.50
37412;DHT22;23278;52.110;6.050;2022-08-04T15:29:15;44.90;34.00
37412;DHT22;23278;52.110;6.050;2022-08-04T15:31:43;43.60;35.00
37412;DHT22;23278;52.110;6.050;2022-08-04T15:34:11;42.40;35.70
37412;DHT22;23278;52.110;6.050;2022-08-04T15:36:52;41.30;36.30
37412;DHT22;23278;52.110;6.050;2022-08-04T15:39:32;40.50;37.00
37412;DHT22;23278;52.110;6.050;2022-08-04T15:42:20;39.90;37.30
37412;DHT22;23278;52.110;6.050;2022-08-04T15:47:24;39.00;37.90
37412;DHT22;23278;52.110;6.050;2022-08-04T15:50:11;38.70;37.90
37412;DHT22;23278;52.110;6.050;2022-08-04T15:52:58;38.30;38.20
37412;DHT22;23278;52.110;6.050;2022-08-04T15:58:01;37.30;39.40
37412;DHT22;23278;52.110;6.050;2022-08-04T16:01:11;37.00;39.60
37412;DHT22;23278;52.110;6.050;2022-08-04T16:19:05;39.30;37.30
37412;DHT22;23278;52.110;6.050;2022-08-04T16:21:33;38.90;37.70
37412;DHT22;23278;52.110;6.050;2022-08-04T16:24:09;38.10;38.60
37412;DHT22;23278;52.110;6.050;2022-08-04T16:26:43;37.20;39.30
37412;DHT22;23278;52.110;6.050;2022-08-04T16:32:07;35.80;40.70
37412;DHT22;23278;52.110;6.050;2022-08-04T16:37:35;34.80;41.70
37412;DHT22;23278;52.110;6.050;2022-08-04T16:40:31;34.40;42.00
37412;DHT22;23278;52.110;6.050;2022-08-04T16:45:46;33.70;42.80
37412;DHT22;23278;52.110;6.050;2022-08-04T16:48:14;33.60;43.00
37412;DHT22;23278;52.110;6.050;2022-08-04T16:53:18;33.50;43.00
37412;DHT22;23278;52.110;6.050;2022-08-04T16:55:50;33.50;43.10
37412;DHT22;23278;52.110;6.050;2022-08-04T16:58:17;33.40;43.20
37412;DHT22;23278;52.110;6.050;2022-08-04T17:00:48;33.20;43.00
37412;DHT22;23278;52.110;6.050;2022-08-04T17:03:15;33.10;43.00
37412;DHT22;23278;52.110;6.050;2022-08-04T17:05:41;33.00;43.10
37412;DHT22;23278;52.110;6.050;2022-08-04T17:08:08;32.80;43.40
37412;DHT22;23278;52.110;6.050;2022-08-04T17:10:42;32.50;43.80
37412;DHT22;23278;52.110;6.050;2022-08-04T17:13:31;32.30;44.10
37412;DHT22;23278;52.110;6.050;2022-08-04T17:16:03;32.10;44.30
37412;DHT22;23278;52.110;6.050;2022-08-04T17:18:31;32.00;44.40
37412;DHT22;23278;52.110;6.050;2022-08-04T17:21:03;31.90;44.60
37412;DHT22;23278;52.110;6.050;2022-08-04T17:23:32;31.70;44.80
37412;DHT22;23278;52.110;6.050;2022-08-04T17:26:12;31.60;45.00
37412;DHT22;23278;52.110;6.050;2022-08-04T17:28:40;31.50;45.10
37412;DHT22;23278;52.110;6.050;2022-08-04T17:31:10;31.50;45.30
37412;DHT22;23278;52.110;6.050;2022-08-04T17:33:49;31.40;45.50
37412;DHT22;23278;52.110;6.050;2022-08-04T17:36:16;31.30;45.80
37412;DHT22;23278;52.110;6.050;2022-08-04T17:38:47;31.10;46.00
37412;DHT22;23278;52.110;6.050;2022-08-04T17:41:15;30.90;46.40
37412;DHT22;23278;52.110;6.050;2022-08-04T17:43:47;30.60;46.40
37412;DHT22;23278;52.110;6.050;2022-08-04T17:46:14;30.40;46.70
37412;DHT22;23278;52.110;6.050;2022-08-04T17:48:43;30.20;47.20
37412;DHT22;23278;52.110;6.050;2022-08-04T17:53:38;29.80;47.80
37412;DHT22;23278;52.110;6.050;2022-08-04T17:56:04;29.60;48.20
37412;DHT22;23278;52.110;6.050;2022-08-04T17:58:30;29.30;48.60
37412;DHT22;23278;52.110;6.050;2022-08-04T18:01:01;29.20;48.80
37412;DHT22;23278;52.110;6.050;2022-08-04T18:03:27;29.00;49.20
37412;DHT22;23278;52.110;6.050;2022-08-04T18:05:53;28.90;49.90
37412;DHT22;23278;52.110;6.050;2022-08-04T18:08:25;28.80;49.90
37412;DHT22;23278;52.110;6.050;2022-08-04T18:10:52;28.70;50.30
37412;DHT22;23278;52.110;6.050;2022-08-04T18:13:20;28.60;50.30
37412;DHT22;23278;52.110;6.050;2022-08-04T18:15:46;28.50;50.50
37412;DHT22;23278;52.110;6.050;2022-08-04T18:18:20;28.40;51.30
37412;DHT22;23278;52.110;6.050;2022-08-04T18:20:46;28.30;51.60
37412;DHT22;23278;52.110;6.050;2022-08-04T18:23:13;28.20;51.80
37412;DHT22;23278;52.110;6.050;2022-08-04T18:25:44;28.10;51.90
37412;DHT22;23278;52.110;6.050;2022-08-04T18:28:13;28.10;52.40
37412;DHT22;23278;52.110;6.050;2022-08-04T18:30:39;27.90;52.80
37412;DHT22;23278;52.110;6.050;2022-08-04T18:33:05;27.70;53.60
37412;DHT22;23278;52.110;6.050;2022-08-04T18:35:33;27.50;53.70
37412;DHT22;23278;52.110;6.050;2022-08-04T18:38:01;27.30;54.00
37412;DHT22;23278;52.110;6.050;2022-08-04T18:40:27;27.20;54.40
37412;DHT22;23278;52.110;6.050;2022-08-04T18:42:53;27.00;54.60
37412;DHT22;23278;52.110;6.050;2022-08-04T18:45:19;26.90;55.00
37412;DHT22;23278;52.110;6.050;2022-08-04T18:47:44;26.80;55.50
37412;DHT22;23278;52.110;6.050;2022-08-04T18:50:10;26.60;55.90
37412;DHT22;23278;52.110;6.050;2022-08-04T18:52:37;26.50;56.30
37412;DHT22;23278;52.110;6.050;2022-08-04T18:55:03;26.30;56.40
37412;DHT22;23278;52.110;6.050;2022-08-04T18:57:29;26.20;56.80
37412;DHT22;23278;52.110;6.050;2022-08-04T18:59:56;26.00;57.00
37412;DHT22;23278;52.110;6.050;2022-08-04T19:02:22;25.90;57.50
37412;DHT22;23278;52.110;6.050;2022-08-04T19:04:48;25.70;57.70
37412;DHT22;23278;52.110;6.050;2022-08-04T19:07:15;25.70;57.90
37412;DHT22;23278;52.110;6.050;2022-08-04T19:09:42;25.60;58.10
37412;DHT22;23278;52.110;6.050;2022-08-04T19:12:08;25.50;58.50
37412;DHT22;23278;52.110;6.050;2022-08-04T19:14:34;25.40;58.70
37412;DHT22;23278;52.110;6.050;2022-08-04T19:17:00;25.30;58.80
37412;DHT22;23278;52.110;6.050;2022-08-04T19:19:26;25.30;58.80
37412;DHT22;23278;52.110;6.050;2022-08-04T19:21:52;25.20;59.10
37412;DHT22;23278;52.110;6.050;2022-08-04T19:24:18;25.20;59.20
37412;DHT22;23278;52.110;6.050;2022-08-04T19:26:44;25.10;59.40
37412;DHT22;23278;52.110;6.050;2022-08-04T19:29:10;25.00;59.70
37412;DHT22;23278;52.110;6.050;2022-08-04T19:31:36;24.90;60.00
37412;DHT22;23278;52.110;6.050;2022-08-04T19:34:02;24.80;60.00
37412;DHT22;23278;52.110;6.050;2022-08-04T19:36:29;24.70;60.20
37412;DHT22;23278;52.110;6.050;2022-08-04T19:39:01;24.70;60.10
37412;DHT22;23278;52.110;6.050;2022-08-04T19:41:28;24.70;60.60
37412;DHT22;23278;52.110;6.050;2022-08-04T19:43:56;24.60;60.90
37412;DHT22;23278;52.110;6.050;2022-08-04T19:46:22;24.60;61.20
37412;DHT22;23278;52.110;6.050;2022-08-04T19:48:49;24.50;61.30
37412;DHT22;23278;52.110;6.050;2022-08-04T19:51:15;24.40;61.40
37412;DHT22;23278;52.110;6.050;2022-08-04T19:53:44;24.40;61.60
37412;DHT22;23278;52.110;6.050;2022-08-04T19:56:10;24.30;61.70
37412;DHT22;23278;52.110;6.050;2022-08-04T19:58:36;24.30;61.80
37412;DHT22;23278;52.110;6.050;2022-08-04T20:01:06;24.30;61.90
37412;DHT22;23278;52.110;6.050;2022-08-04T20:03:32;24.30;62.10
37412;DHT22;23278;52.110;6.050;2022-08-04T20:05:58;24.20;62.00
37412;DHT22;23278;52.110;6.050;2022-08-04T20:08:27;24.20;62.10
37412;DHT22;23278;52.110;6.050;2022-08-04T20:10:52;24.20;62.20
37412;DHT22;23278;52.110;6.050;2022-08-04T20:13:19;24.10;62.50
37412;DHT22;23278;52.110;6.050;2022-08-04T20:15:45;24.00;62.70
37412;DHT22;23278;52.110;6.050;2022-08-04T20:18:12;24.00;63.00